createdAt,value
2019-04-20T00:01:11.530Z,8.70
2019-04-20T00:03:43.226Z,8.63
2019-04-20T00:06:13.201Z,11.10
2019-04-20T00:08:45.831Z,9.40
2019-04-20T00:11:25.434Z,9.73
2019-04-20T00:13:59.470Z,12.10
2019-04-20T00:16:23.121Z,11.27
2019-04-20T00:18:58.351Z,9.53
2019-04-20T00:21:47.009Z,10.73
2019-04-20T00:24:20.036Z,10.17
2019-04-20T00:27:22.378Z,8.63
2019-04-20T00:29:35.577Z,9.37
2019-04-20T00:32:07.770Z,10.63
2019-04-20T00:34:33.242Z,9.27
2019-04-20T00:37:00.303Z,11.60
2019-04-20T00:39:32.019Z,11.33
2019-04-20T00:42:09.683Z,9.50
2019-04-20T00:44:45.824Z,11.53
2019-04-20T00:47:32.297Z,13.70
2019-04-20T00:50:02.554Z,11.80
2019-04-20T00:52:44.467Z,10.93
2019-04-20T00:54:52.214Z,10.43
2019-04-20T00:57:34.678Z,10.80
2019-04-20T01:00:17.587Z,14.07
2019-04-20T01:02:40.550Z,10.97
2019-04-20T01:05:19.967Z,11.93
2019-04-20T01:07:46.808Z,11.53
2019-04-20T01:10:17.287Z,10.77
2019-04-20T01:12:52.049Z,11.00
2019-04-20T01:15:30.164Z,13.10
2019-04-20T01:17:52.836Z,11.30
2019-04-20T01:20:26.355Z,13.13
2019-04-20T01:23:03.279Z,13.37
2019-04-20T01:25:35.189Z,11.63
2019-04-20T01:28:12.643Z,15.03
2019-04-20T01:30:39.781Z,14.80
2019-04-20T01:33:24.451Z,13.67
2019-04-20T01:35:55.500Z,15.80
2019-04-20T01:38:26.691Z,11.83
2019-04-20T01:40:44.371Z,11.47
2019-04-20T01:43:16.324Z,13.10
2019-04-20T01:45:48.652Z,15.30
2019-04-20T01:48:28.768Z,11.83
2019-04-20T01:51:06.565Z,13.93
2019-04-20T01:53:55.726Z,13.30
2019-04-20T01:56:20.200Z,12.83
2019-04-20T01:59:02.594Z,12.03
2019-04-20T02:01:40.704Z,13.67
2019-04-20T02:04:20.343Z,16.07
2019-04-20T02:06:57.906Z,14.63
2019-04-20T02:09:28.022Z,12.93
2019-04-20T02:12:05.051Z,12.73
2019-04-20T02:14:40.064Z,12.23
2019-04-20T02:17:09.598Z,14.37
2019-04-20T02:19:59.794Z,12.77
2019-04-20T02:22:30.327Z,12.20
2019-04-20T02:24:44.846Z,12.07
2019-04-20T02:27:19.704Z,11.57
2019-04-20T02:30:14.286Z,14.53
2019-04-20T02:32:55.620Z,12.87
2019-04-20T02:35:27.321Z,14.23
2019-04-20T02:38:12.171Z,14.57
2019-04-20T02:40:46.877Z,12.23
2019-04-20T02:43:09.570Z,12.67
2019-04-20T02:45:57.389Z,15.07
2019-04-20T02:48:31.742Z,13.00
2019-04-20T02:51:22.576Z,15.67
2019-04-20T02:54:06.333Z,15.10
2019-04-20T02:59:02.137Z,14.47
2019-04-20T03:01:43.498Z,12.73
2019-04-20T03:03:56.731Z,12.03
2019-04-20T03:06:51.606Z,14.73
2019-04-20T03:09:29.884Z,14.27
2019-04-20T03:12:05.006Z,14.27
2019-04-20T03:14:26.987Z,13.90
2019-04-20T03:17:10.318Z,13.17
2019-04-20T03:19:31.436Z,15.60
2019-04-20T03:22:46.610Z,17.40
2019-04-20T03:25:05.061Z,15.87
2019-04-20T03:27:35.564Z,13.17
2019-04-20T03:31:05.749Z,13.87
2019-04-20T03:33:12.597Z,12.47
2019-04-20T03:35:35.154Z,17.30
2019-04-20T03:38:06.128Z,15.97
2019-04-20T03:40:33.861Z,15.63
2019-04-20T03:42:48.866Z,13.90
2019-04-20T03:45:23.022Z,13.33
2019-04-20T03:48:03.098Z,11.53
2019-04-20T03:50:46.753Z,12.70
2019-04-20T03:53:20.210Z,13.63
2019-04-20T03:55:52.859Z,13.93
2019-04-20T03:58:29.245Z,13.23
2019-04-20T04:01:22.748Z,11.33
2019-04-20T04:04:06.676Z,13.00
2019-04-20T04:06:24.266Z,13.00
2019-04-20T04:09:02.374Z,15.43
2019-04-20T04:11:34.854Z,13.77
2019-04-20T04:13:52.570Z,13.30
2019-04-20T04:16:27.815Z,15.20
2019-04-20T04:19:16.126Z,14.07
2019-04-20T04:22:14.782Z,14.17
2019-04-20T04:25:01.805Z,13.03
2019-04-20T04:27:57.119Z,14.80
2019-04-20T04:30:30.599Z,13.50
2019-04-20T04:33:32.212Z,15.93
2019-04-20T04:35:29.732Z,15.93
2019-04-20T04:38:09.483Z,14.13
2019-04-20T04:40:49.862Z,16.17
2019-04-20T04:43:15.823Z,15.53
2019-04-20T04:45:37.057Z,16.57
2019-04-20T04:52:01.088Z,14.43
2019-04-20T04:54:46.194Z,16.60
2019-04-20T04:57:09.463Z,17.00
2019-04-20T04:59:40.371Z,17.47
2019-04-20T05:02:11.810Z,18.00
2019-04-20T05:05:25.233Z,15.77
2019-04-20T05:07:57.878Z,14.77
2019-04-20T05:10:18.940Z,18.27
2019-04-20T05:12:51.775Z,14.80
2019-04-20T05:15:40.443Z,17.27
2019-04-20T05:18:18.271Z,17.80
2019-04-20T05:20:54.728Z,16.00
2019-04-20T05:23:37.401Z,19.47
2019-04-20T05:26:25.609Z,16.17
2019-04-20T05:28:59.025Z,14.63
2019-04-20T05:31:52.902Z,16.23
2019-04-20T05:34:46.299Z,14.47
2019-04-20T05:37:25.711Z,12.90
2019-04-20T05:39:44.425Z,14.23
2019-04-20T05:42:20.294Z,14.87
2019-04-20T05:44:54.166Z,18.23
2019-04-20T05:47:22.687Z,17.00
2019-04-20T05:49:50.094Z,13.80
2019-04-20T05:52:50.665Z,15.40
2019-04-20T05:55:39.101Z,15.30
2019-04-20T05:58:22.113Z,13.13
2019-04-20T06:00:55.412Z,15.30
2019-04-20T06:03:20.306Z,14.20
2019-04-20T06:06:03.733Z,17.37
2019-04-20T06:11:57.510Z,20.17
2019-04-20T06:14:08.177Z,15.17
2019-04-20T06:17:10.665Z,16.60
2019-04-20T06:19:39.464Z,12.97
2019-04-20T06:22:27.267Z,13.93
2019-04-20T06:25:19.178Z,14.97
2019-04-20T06:27:35.078Z,14.67
2019-04-20T06:30:07.142Z,13.70
2019-04-20T06:33:34.217Z,14.63
2019-04-20T06:36:07.459Z,17.00
2019-04-20T06:39:02.328Z,14.80
2019-04-20T06:41:45.586Z,17.03
2019-04-20T06:44:08.805Z,12.90
2019-04-20T06:46:45.607Z,17.00
2019-04-20T06:49:25.587Z,21.10
2019-04-20T06:52:01.705Z,18.40
2019-04-20T06:54:43.192Z,17.17
2019-04-20T06:57:54.777Z,15.20
2019-04-20T07:00:42.052Z,15.63
2019-04-20T07:03:31.528Z,14.70
2019-04-20T07:06:26.733Z,12.27
2019-04-20T07:08:56.812Z,14.50
2019-04-20T07:11:34.289Z,13.57
2019-04-20T07:14:25.982Z,14.03
2019-04-20T07:17:47.290Z,13.73
2019-04-20T07:19:56.329Z,13.67
2019-04-20T07:23:11.130Z,13.13
2019-04-20T07:25:52.885Z,17.70
2019-04-20T07:28:22.921Z,16.17
2019-04-20T07:30:51.985Z,16.10
2019-04-20T07:33:32.303Z,20.33
2019-04-20T07:36:04.110Z,13.10
2019-04-20T07:38:43.148Z,14.40
2019-04-20T07:41:42.017Z,18.77
2019-04-20T07:44:29.878Z,12.90
2019-04-20T07:47:09.801Z,13.73
2019-04-20T07:49:41.854Z,14.50
2019-04-20T07:52:33.831Z,15.67
2019-04-20T07:55:35.196Z,16.10
2019-04-20T07:57:48.876Z,27.17
2019-04-20T08:00:38.563Z,13.93
2019-04-20T08:03:42.824Z,14.13
2019-04-20T08:06:15.464Z,14.53
2019-04-20T08:08:55.655Z,17.00
2019-04-20T08:11:41.346Z,17.93
2019-04-20T08:14:39.971Z,14.33
2019-04-20T08:19:41.027Z,17.07
2019-04-20T08:22:42.787Z,17.87
2019-04-20T08:25:30.616Z,16.40
2019-04-20T08:28:22.671Z,14.27
2019-04-20T08:31:21.905Z,18.93
2019-04-20T08:34:27.841Z,17.80
2019-04-20T08:37:07.075Z,19.77
2019-04-20T08:39:58.489Z,13.97
2019-04-20T08:42:51.188Z,15.47
2019-04-20T08:45:31.675Z,18.80
2019-04-20T08:48:33.095Z,17.03
2019-04-20T08:51:25.492Z,17.03
2019-04-20T08:54:08.801Z,17.27
2019-04-20T08:56:46.397Z,15.77
2019-04-20T08:59:11.634Z,14.07
2019-04-20T09:01:51.465Z,16.17
2019-04-20T09:04:35.947Z,14.33
2019-04-20T09:07:06.464Z,18.10
2019-04-20T09:13:05.512Z,16.03
2019-04-20T09:15:23.722Z,15.67
2019-04-20T09:18:09.362Z,17.97
2019-04-20T09:20:48.484Z,15.73
2019-04-20T09:24:17.274Z,18.10
2019-04-20T09:27:04.711Z,17.93
2019-04-20T09:29:42.655Z,16.63
2019-04-20T09:32:48.446Z,21.10
2019-04-20T09:35:47.349Z,19.90
2019-04-20T09:38:29.993Z,17.03
2019-04-20T09:41:09.141Z,20.37
2019-04-20T09:44:04.682Z,18.90
2019-04-20T09:46:51.605Z,18.07
2019-04-20T09:49:51.972Z,16.93
2019-04-20T09:52:28.964Z,18.57
2019-04-20T09:55:53.528Z,19.63
2019-04-20T09:58:23.806Z,21.17
2019-04-20T10:01:01.807Z,23.23
2019-04-20T10:03:44.966Z,19.57
2019-04-20T10:06:23.062Z,18.23
2019-04-20T10:09:09.764Z,29.53
2019-04-20T10:12:21.948Z,18.97
2019-04-20T10:15:05.108Z,20.40
2019-04-20T10:17:45.659Z,17.30
2019-04-20T10:20:24.424Z,19.00
2019-04-20T10:23:19.088Z,17.80
2019-04-20T10:25:58.598Z,16.53
2019-04-20T10:28:46.014Z,19.53
2019-04-20T10:31:24.511Z,16.53
2019-04-20T10:34:03.865Z,18.43
2019-04-20T10:36:48.273Z,18.77
2019-04-20T10:39:30.850Z,18.23
2019-04-20T10:42:24.374Z,18.40
2019-04-20T10:45:17.096Z,21.17
2019-04-20T10:47:48.086Z,23.17
2019-04-20T10:50:23.013Z,17.13
2019-04-20T10:52:59.615Z,19.17
2019-04-20T10:55:49.618Z,16.37
2019-04-20T10:58:23.399Z,16.63
2019-04-20T11:00:55.850Z,13.47
2019-04-20T11:03:34.702Z,13.87
2019-04-20T11:06:24.734Z,15.10
2019-04-20T11:09:18.514Z,12.77
2019-04-20T11:11:58.749Z,13.93
2019-04-20T11:14:34.442Z,15.23
2019-04-20T11:17:22.340Z,15.03
2019-04-20T11:20:12.959Z,13.63
2019-04-20T11:22:52.689Z,15.40
2019-04-20T11:25:24.289Z,12.40
2019-04-20T11:28:08.246Z,13.07
2019-04-20T11:31:17.252Z,12.40
2019-04-20T11:33:48.087Z,12.10
2019-04-20T11:36:39.248Z,9.70
2019-04-20T11:39:14.772Z,10.90
2019-04-20T11:41:45.814Z,11.60
2019-04-20T11:44:17.813Z,11.93
2019-04-20T11:46:56.647Z,6.03
2019-04-20T11:49:28.458Z,9.27
2019-04-20T11:52:27.048Z,7.10
2019-04-20T11:55:02.418Z,10.73
2019-04-20T11:57:35.382Z,9.07
2019-04-20T12:00:42.300Z,8.17
2019-04-20T12:03:35.364Z,9.70
2019-04-20T12:06:14.938Z,9.73
2019-04-20T12:09:05.173Z,7.67
2019-04-20T12:12:27.725Z,10.80
2019-04-20T12:14:50.469Z,10.13
2019-04-20T12:17:59.890Z,6.07
2019-04-20T12:20:50.469Z,6.53
2019-04-20T12:23:22.326Z,10.80
2019-04-20T12:25:59.719Z,7.67
2019-04-20T12:28:52.307Z,6.70
2019-04-20T12:31:39.798Z,11.40
2019-04-20T12:34:39.338Z,9.50
2019-04-20T12:37:11.223Z,8.47
2019-04-20T12:39:44.947Z,8.13
2019-04-20T12:42:16.909Z,9.37
2019-04-20T12:44:51.884Z,9.87
2019-04-20T12:47:23.762Z,8.97
2019-04-20T12:50:13.820Z,11.20
2019-04-20T12:52:56.654Z,11.80
2019-04-20T12:55:46.697Z,9.70
2019-04-20T12:58:18.434Z,11.93
2019-04-20T13:00:52.465Z,9.53
2019-04-20T13:03:23.554Z,12.00
2019-04-20T13:06:14.581Z,9.47
2019-04-20T13:09:08.307Z,9.13
2019-04-20T13:11:55.536Z,9.70
2019-04-20T13:15:04.551Z,11.53
2019-04-20T13:17:56.985Z,11.57
2019-04-20T13:20:48.021Z,10.20
2019-04-20T13:23:31.258Z,10.80
2019-04-20T13:26:12.664Z,10.47
2019-04-20T13:29:22.733Z,11.07
2019-04-20T13:31:56.326Z,11.43
2019-04-20T13:34:32.015Z,14.27
2019-04-20T13:37:06.268Z,12.07
2019-04-20T13:39:44.843Z,11.27
2019-04-20T13:42:27.803Z,11.97
2019-04-20T13:44:57.129Z,12.33
2019-04-20T13:47:28.316Z,11.93
2019-04-20T13:50:22.305Z,11.83
2019-04-20T13:52:53.839Z,11.77
2019-04-20T13:55:45.759Z,10.00
2019-04-20T13:58:23.929Z,9.60
2019-04-20T14:01:01.370Z,10.33
2019-04-20T14:04:12.743Z,10.70
2019-04-20T14:07:06.949Z,9.30
2019-04-20T14:09:37.548Z,12.40
2019-04-20T14:12:16.213Z,8.20
2019-04-20T14:14:57.182Z,16.30
2019-04-20T14:17:28.978Z,10.63
2019-04-20T14:20:22.619Z,10.23
2019-04-20T14:22:58.883Z,10.77
2019-04-20T14:25:29.628Z,9.83
2019-04-20T14:28:00.713Z,10.40
2019-04-20T14:30:47.911Z,10.33
2019-04-20T14:33:44.617Z,9.83
2019-04-20T14:36:28.894Z,12.07
2019-04-20T14:39:24.569Z,9.67
2019-04-20T14:42:02.461Z,10.70
2019-04-20T14:44:53.602Z,9.97
2019-04-20T14:47:25.600Z,10.70
2019-04-20T14:49:59.875Z,9.07
2019-04-20T14:52:29.443Z,10.17
2019-04-20T14:55:12.421Z,13.70
2019-04-20T14:57:53.211Z,9.90
2019-04-20T15:00:58.622Z,8.23
2019-04-20T15:03:36.726Z,11.40
2019-04-20T15:06:07.442Z,12.83
2019-04-20T15:08:42.885Z,8.87
2019-04-20T15:11:18.760Z,8.63
2019-04-20T15:14:00.640Z,9.13
2019-04-20T15:16:46.730Z,8.50
2019-04-20T15:19:35.805Z,10.37
2019-04-20T15:22:36.168Z,10.07
2019-04-20T15:25:13.953Z,11.63
2019-04-20T15:27:52.349Z,10.70
2019-04-20T15:30:26.529Z,9.50
2019-04-20T15:33:14.906Z,9.53
2019-04-20T15:35:52.398Z,10.60
2019-04-20T15:38:40.920Z,10.87
2019-04-20T15:41:33.584Z,10.00
2019-04-20T15:44:11.267Z,11.03
2019-04-20T15:46:45.943Z,10.60
2019-04-20T15:49:17.935Z,11.40
2019-04-20T15:51:49.973Z,14.50
2019-04-20T15:54:20.694Z,10.97
2019-04-20T15:56:58.902Z,11.93
2019-04-20T15:59:26.476Z,13.70
2019-04-20T16:02:05.058Z,13.23
2019-04-20T16:04:41.208Z,12.97
2019-04-20T16:07:10.900Z,10.43
2019-04-20T16:09:42.138Z,13.27
2019-04-20T16:12:13.076Z,12.43
2019-04-20T16:14:43.922Z,13.17
2019-04-20T16:17:15.180Z,13.60
2019-04-20T16:19:52.211Z,13.73
2019-04-20T16:22:20.057Z,10.77
2019-04-20T16:24:53.623Z,10.40
2019-04-20T16:27:29.699Z,11.57
2019-04-20T16:30:01.852Z,9.27
2019-04-20T16:32:32.735Z,10.43
2019-04-20T16:35:04.521Z,9.77
2019-04-20T16:37:38.389Z,11.27
2019-04-20T16:40:09.958Z,13.90
2019-04-20T16:42:43.786Z,12.37
2019-04-20T16:45:15.071Z,13.43
2019-04-20T16:47:46.301Z,9.23
2019-04-20T16:50:17.192Z,11.80
2019-04-20T16:52:48.833Z,12.27
2019-04-20T16:55:20.698Z,14.00
2019-04-20T16:57:52.925Z,10.70
2019-04-20T17:00:25.451Z,10.00
2019-04-20T17:02:56.319Z,11.93
2019-04-20T17:05:29.258Z,15.47
2019-04-20T17:08:01.102Z,13.97
2019-04-20T17:10:32.752Z,12.97
2019-04-20T17:13:04.099Z,11.77
2019-04-20T17:15:37.240Z,13.77
2019-04-20T17:18:11.898Z,10.63
2019-04-20T17:20:42.519Z,13.93
2019-04-20T17:23:13.263Z,11.77
2019-04-20T17:25:43.992Z,9.73
2019-04-20T17:28:22.702Z,17.43
2019-04-20T17:31:03.039Z,11.30
2019-04-20T17:33:47.502Z,12.07
2019-04-20T17:36:16.726Z,15.10
2019-04-20T17:38:45.965Z,12.43
2019-04-20T17:41:36.180Z,13.17
2019-04-20T17:44:07.194Z,12.53
2019-04-20T17:46:33.061Z,13.70
2019-04-20T17:49:16.964Z,15.23
2019-04-20T17:51:53.476Z,15.13
2019-04-20T17:54:22.438Z,15.33
2019-04-20T17:56:54.282Z,14.90
2019-04-20T17:59:26.266Z,15.30
2019-04-20T18:02:32.406Z,13.90
2019-04-20T18:05:19.799Z,14.83
2019-04-20T18:07:44.833Z,15.00
2019-04-20T18:10:18.992Z,12.37
2019-04-20T18:12:44.013Z,13.73
2019-04-20T18:15:29.452Z,14.00
2019-04-20T18:18:18.728Z,14.93
2019-04-20T18:20:38.975Z,14.00
2019-04-20T18:23:10.897Z,11.63
2019-04-20T18:26:07.891Z,13.73
2019-04-20T18:28:29.541Z,15.23
2019-04-20T18:30:59.260Z,13.27
2019-04-20T18:33:33.010Z,11.67
2019-04-20T18:36:00.727Z,14.93
2019-04-20T18:38:39.264Z,17.37
2019-04-20T18:41:07.806Z,12.40
2019-04-20T18:43:43.918Z,13.37
2019-04-20T18:46:28.153Z,16.40
2019-04-20T18:49:03.197Z,14.30
2019-04-20T18:51:13.417Z,14.70
2019-04-20T18:53:46.881Z,14.20
2019-04-20T18:56:25.630Z,15.43
2019-04-20T18:58:51.257Z,12.70
2019-04-20T19:01:29.542Z,12.37
2019-04-20T19:03:54.307Z,15.70
2019-04-20T19:06:25.609Z,16.07
2019-04-20T19:08:57.268Z,15.80
2019-04-20T19:11:36.355Z,12.90
2019-04-20T19:14:34.478Z,13.33
2019-04-20T19:17:10.335Z,13.67
2019-04-20T19:19:59.859Z,14.53
2019-04-20T19:22:30.277Z,15.83
2019-04-20T19:25:02.213Z,14.90
2019-04-20T19:27:41.410Z,16.93
2019-04-20T19:30:20.363Z,14.13
2019-04-20T19:32:54.271Z,14.33
2019-04-20T19:35:25.806Z,13.93
2019-04-20T19:37:53.758Z,16.73
2019-04-20T19:40:33.855Z,16.90
2019-04-20T19:43:10.937Z,15.57
2019-04-20T19:45:46.414Z,15.93
2019-04-20T19:48:18.500Z,17.23
2019-04-20T19:50:58.916Z,14.40
2019-04-20T19:53:26.671Z,17.00
2019-04-20T19:55:52.717Z,16.40
2019-04-20T19:58:25.295Z,13.67
2019-04-20T20:00:50.498Z,11.87
2019-04-20T20:03:19.764Z,18.83
2019-04-20T20:05:53.842Z,19.07
2019-04-20T20:08:29.100Z,17.97
2019-04-20T20:11:00.860Z,19.50
2019-04-20T20:13:37.471Z,14.53
2019-04-20T20:16:10.621Z,15.07
2019-04-20T20:18:48.803Z,16.23
2019-04-20T20:21:30.519Z,11.17
2019-04-20T20:23:50.124Z,14.17
2019-04-20T20:26:31.296Z,13.97
2019-04-20T20:29:30.507Z,13.30
2019-04-20T20:32:10.361Z,14.17
2019-04-20T20:34:39.804Z,11.87
2019-04-20T20:37:09.625Z,12.80
2019-04-20T20:39:40.187Z,11.63
2019-04-20T20:42:29.392Z,11.47
2019-04-20T20:45:08.252Z,17.10
2019-04-20T20:48:01.631Z,12.70
2019-04-20T20:50:42.930Z,14.77
2019-04-20T20:53:05.071Z,14.60
2019-04-20T20:55:34.202Z,13.37
2019-04-20T20:58:11.405Z,13.50
2019-04-20T21:00:53.333Z,14.60
2019-04-20T21:03:22.317Z,12.53
2019-04-20T21:05:47.429Z,12.13
2019-04-20T21:08:19.647Z,11.90
2019-04-20T21:10:51.054Z,12.23
2019-04-20T21:13:25.913Z,12.80
2019-04-20T21:16:02.837Z,11.10
2019-04-20T21:19:03.178Z,11.63
2019-04-20T21:21:37.340Z,10.83
2019-04-20T21:24:06.745Z,13.00
2019-04-20T21:26:37.608Z,10.57
2019-04-20T21:29:13.791Z,10.70
2019-04-20T21:31:54.970Z,13.10
2019-04-20T21:34:19.905Z,14.50
2019-04-20T21:36:50.531Z,12.47
2019-04-20T21:39:30.150Z,10.50
2019-04-20T21:42:01.457Z,13.00
2019-04-20T21:44:41.396Z,11.70
2019-04-20T21:47:15.627Z,12.33
2019-04-20T21:49:55.721Z,12.20
2019-04-20T21:52:24.797Z,14.07
2019-04-20T21:54:49.882Z,11.97
2019-04-20T21:57:22.100Z,10.20
2019-04-20T21:59:56.798Z,12.37
2019-04-20T22:02:32.143Z,11.47
2019-04-20T22:04:57.671Z,12.97
2019-04-20T22:07:34.563Z,15.27
2019-04-20T22:10:06.960Z,11.60
2019-04-20T22:12:45.626Z,13.13
2019-04-20T22:15:27.147Z,8.90
2019-04-20T22:17:54.764Z,13.00
2019-04-20T22:20:34.649Z,13.13
2019-04-20T22:23:10.626Z,13.37
2019-04-20T22:25:47.795Z,14.57
2019-04-20T22:28:05.213Z,12.20
2019-04-20T22:30:36.103Z,11.80
2019-04-20T22:33:36.006Z,12.67
2019-04-20T22:36:06.307Z,10.40
2019-04-20T22:38:56.627Z,11.60
2019-04-20T22:41:27.858Z,14.63
2019-04-20T22:44:02.835Z,11.87
2019-04-20T22:46:34.125Z,11.47
2019-04-20T22:49:22.257Z,13.87
2019-04-20T22:51:44.794Z,13.40
2019-04-20T22:54:21.757Z,11.73
2019-04-20T22:56:50.003Z,11.43
2019-04-20T22:59:17.420Z,14.60
2019-04-20T23:01:51.621Z,14.27
2019-04-20T23:04:19.043Z,14.20
2019-04-20T23:06:52.361Z,13.27
2019-04-20T23:09:24.624Z,10.83
2019-04-20T23:12:03.625Z,14.23
2019-04-20T23:14:38.371Z,14.67
2019-04-20T23:17:28.334Z,14.07
2019-04-20T23:19:57.455Z,18.17
2019-04-20T23:22:33.814Z,13.53
2019-04-20T23:24:59.461Z,14.77
2019-04-20T23:27:32.062Z,14.03
2019-04-20T23:30:11.018Z,14.20
2019-04-20T23:32:35.881Z,16.23
2019-04-20T23:35:24.515Z,13.17
2019-04-20T23:38:02.858Z,18.03
2019-04-20T23:40:31.950Z,18.03
2019-04-20T23:43:19.042Z,13.87
2019-04-20T23:45:54.846Z,14.00
2019-04-20T23:48:31.135Z,15.23
2019-04-20T23:51:27.862Z,16.10
2019-04-20T23:53:46.775Z,13.27
2019-04-20T23:56:05.878Z,22.17
2019-04-20T23:58:42.849Z,16.47
